Time;durP1;ratioP1;P1;durP2;ratioP2;P2;SDS_P1;SDS_P2;PMS_P1;PMS_P2;Temp;Humidity;BMP_temperature;BMP_pressure;BME280_temperature;BME280_humidity;BME280_pressure;Samples;Min_cycle;Max_cycle;Signal;HPM_P1;HPM_P2
2021/03/01 00:02:23;;;;;;;11.57;6.22;;;5.40;93.40;;;;;;4994187;28;20088;-88
2021/03/01 00:04:48;;;;;;;11.68;7.13;;;5.40;93.40;;;;;;4978639;28;20129;-90
2021/03/01 00:07:14;;;;;;;11.20;6.97;;;5.40;93.40;;;;;;4981956;28;20039;-90
2021/03/01 00:09:39;;;;;;;11.93;7.25;;;5.40;93.40;;;;;;4977695;28;20402;-90
2021/03/01 00:12:05;;;;;;;10.80;7.05;;;5.40;93.40;;;;;;4961167;28;20150;-90
2021/03/01 00:14:31;;;;;;;9.73;6.25;;;5.50;93.30;;;;;;4963224;28;20138;-89
2021/03/01 00:16:56;;;;;;;11.88;7.22;;;5.50;93.20;;;;;;4964575;28;20043;-89
2021/03/01 00:19:22;;;;;;;12.50;7.00;;;5.50;93.20;;;;;;4967128;28;20039;-90
2021/03/01 00:21:47;;;;;;;11.27;7.20;;;5.50;93.30;;;;;;4963647;28;20393;-89
2021/03/01 00:24:13;;;;;;;12.55;7.22;;;5.50;93.30;;;;;;4957773;28;20041;-90
2021/03/01 00:26:38;;;;;;;9.55;6.43;;;5.50;93.30;;;;;;4969853;28;20031;-90
2021/03/01 00:29:04;;;;;;;13.52;7.40;;;5.50;93.20;;;;;;4963017;28;20050;-91
2021/03/01 00:31:29;;;;;;;14.88;7.38;;;5.50;93.20;;;;;;4970666;28;20101;-91
2021/03/01 00:33:54;;;;;;;13.20;7.30;;;5.50;93.20;;;;;;4960238;28;20134;-90
2021/03/01 00:36:20;;;;;;;12.80;7.60;;;5.50;93.20;;;;;;5049229;28;20113;-91
2021/03/01 00:38:45;;;;;;;13.00;7.20;;;5.50;93.30;;;;;;4974671;28;20333;-91
2021/03/01 00:41:11;;;;;;;12.85;7.03;;;5.50;93.30;;;;;;4958214;28;20142;-90
2021/03/01 00:43:36;;;;;;;11.95;6.72;;;5.50;93.40;;;;;;4960667;28;20050;-90
2021/03/01 00:46:02;;;;;;;15.85;7.90;;;5.50;93.40;;;;;;4960277;28;20070;-90
2021/03/01 00:48:28;;;;;;;16.55;7.28;;;5.50;93.50;;;;;;5059378;28;20062;-90
2021/03/01 00:50:53;;;;;;;14.05;7.50;;;5.50;93.30;;;;;;4960681;28;20043;-88
2021/03/01 00:53:27;;;;;;;11.93;7.28;;;5.50;93.40;;;;;;4974668;28;20035;-90
2021/03/01 00:55:53;;;;;;;12.63;7.25;;;5.40;93.40;;;;;;4975220;28;20579;-90
2021/03/01 00:58:19;;;;;;;14.85;7.07;;;5.40;93.50;;;;;;4968359;28;20055;-91
2021/03/01 01:00:46;;;;;;;13.48;8.07;;;5.40;93.50;;;;;;5046690;28;20067;-89
2021/03/01 01:03:13;;;;;;;11.48;7.28;;;5.40;93.50;;;;;;4968595;28;20039;-90
2021/03/01 01:05:38;;;;;;;13.57;7.13;;;5.40;93.50;;;;;;4967174;28;20092;-90
2021/03/01 01:08:04;;;;;;;15.65;7.65;;;5.50;93.50;;;;;;4961205;28;20396;-89
2021/03/01 01:10:30;;;;;;;13.57;7.45;;;5.50;93.40;;;;;;4968022;28;20035;-91
2021/03/01 01:12:55;;;;;;;11.68;7.20;;;5.50;93.40;;;;;;5049572;28;20062;-90
2021/03/01 01:15:21;;;;;;;10.93;7.30;;;5.50;93.30;;;;;;4958688;28;20134;-90
2021/03/01 01:17:47;;;;;;;12.20;6.85;;;5.50;93.30;;;;;;4968197;28;20042;-90
2021/03/01 01:20:14;;;;;;;11.85;6.75;;;5.50;93.10;;;;;;4963733;28;20385;-90
2021/03/01 01:22:40;;;;;;;12.43;7.38;;;5.50;93.10;;;;;;4961856;28;20030;-90
2021/03/01 01:25:08;;;;;;;13.88;7.50;;;5.50;93.20;;;;;;4960005;28;20051;-90
2021/03/01 01:27:33;;;;;;;14.35;7.03;;;5.50;93.20;;;;;;4957223;28;20054;-89
2021/03/01 01:29:59;;;;;;;12.75;7.35;;;5.50;93.20;;;;;;4962876;28;20039;-90
2021/03/01 01:32:24;;;;;;;10.65;7.30;;;5.50;93.10;;;;;;4967603;28;20393;-89
2021/03/01 01:34:51;;;;;;;11.82;7.20;;;5.40;93.20;;;;;;4957269;28;20050;-91
2021/03/01 01:37:16;;;;;;;16.30;7.22;;;5.40;93.20;;;;;;5042299;28;20073;-90
2021/03/01 01:39:42;;;;;;;12.40;6.20;;;5.40;93.20;;;;;;4956626;28;20075;-90
2021/03/01 01:42:07;;;;;;;13.00;7.47;;;5.40;93.30;;;;;;4962809;28;20039;-90
2021/03/01 01:44:33;;;;;;;13.20;6.68;;;5.40;93.40;;;;;;4958208;28;20301;-90
2021/03/01 01:46:58;;;;;;;13.25;6.43;;;5.40;93.30;;;;;;4956612;28;20042;-90
2021/03/01 01:49:24;;;;;;;13.43;7.47;;;5.30;93.40;;;;;;4968349;28;20553;-89
2021/03/01 01:51:49;;;;;;;10.27;6.72;;;5.40;93.50;;;;;;5054504;28;20050;-89
2021/03/01 01:54:15;;;;;;;13.50;7.03;;;5.40;93.50;;;;;;4959200;28;20435;-90
2021/03/01 01:56:41;;;;;;;12.43;6.85;;;5.40;93.50;;;;;;4956592;28;20047;-90
2021/03/01 01:59:07;;;;;;;14.23;7.82;;;5.40;93.50;;;;;;4972609;28;20046;-89
2021/03/01 02:01:33;;;;;;;11.65;7.25;;;5.40;93.40;;;;;;4964711;28;20047;-89
2021/03/01 02:04:20;;;;;;;13.90;6.47;;;5.40;93.50;;;;;;4963915;28;20039;-91
2021/03/01 02:07:06;;;;;;;10.77;6.72;;;5.50;93.30;;;;;;4958569;28;20479;-91
2021/03/01 02:09:42;;;;;;;11.63;6.78;;;5.40;93.20;;;;;;5052749;28;20313;-89
2021/03/01 02:12:29;;;;;;;11.57;6.30;;;5.40;93.20;;;;;;4947079;28;20692;-88
2021/03/01 02:15:00;;;;;;;8.80;6.10;;;5.40;93.20;;;;;;4962930;28;20154;-89
2021/03/01 02:17:26;;;;;;;11.73;6.97;;;5.30;93.30;;;;;;4967767;28;20367;-87
2021/03/01 02:19:52;;;;;;;12.70;6.70;;;5.30;93.40;;;;;;4958794;28;20130;-89
2021/03/01 02:22:18;;;;;;;11.52;6.72;;;5.30;93.70;;;;;;4964179;28;20407;-88
2021/03/01 02:24:48;;;;;;;8.35;5.85;;;5.30;93.50;;;;;;4970017;28;20060;-90
2021/03/01 02:27:20;;;;;;;12.90;6.22;;;5.30;93.30;;;;;;4957296;28;20035;-89
2021/03/01 02:29:46;;;;;;;;;;;5.30;93.30;;;;;;4962717;28;20679;-89
2021/03/01 02:32:13;;;;;;;10.57;6.35;;;5.20;93.20;;;;;;4962425;28;19921;-89
2021/03/01 02:34:39;;;;;;;12.55;6.60;;;5.20;93.30;;;;;;4959868;28;20038;-89
2021/03/01 02:37:09;;;;;;;14.07;7.43;;;5.20;93.40;;;;;;4967026;28;20312;-88
2021/03/01 02:39:37;;;;;;;12.63;6.95;;;5.10;93.40;;;;;;4954880;28;20048;-87
2021/03/01 02:42:04;;;;;;;11.18;6.47;;;5.20;93.40;;;;;;4954965;28;20062;-89
2021/03/01 02:44:30;;;;;;;11.50;7.13;;;5.20;93.50;;;;;;5000371;28;20074;-88
2021/03/01 02:46:59;;;;;;;10.55;6.45;;;5.20;93.40;;;;;;4947119;28;20071;-90
2021/03/01 02:49:26;;;;;;;14.82;7.38;;;5.30;93.50;;;;;;4969402;28;20070;-90
2021/03/01 02:51:52;;;;;;;13.65;7.13;;;5.20;93.50;;;;;;4966561;28;20074;-90
2021/03/01 02:54:20;;;;;;;9.45;6.15;;;5.30;93.50;;;;;;4959551;28;20393;-91
2021/03/01 02:56:47;;;;;;;12.93;6.32;;;5.30;93.50;;;;;;4958372;28;20113;-91
2021/03/01 02:59:13;;;;;;;12.23;6.65;;;5.30;93.50;;;;;;4961420;28;20045;-90
2021/03/01 03:01:39;;;;;;;12.80;7.00;;;5.30;93.40;;;;;;4943934;28;20101;-90
2021/03/01 03:04:06;;;;;;;12.02;6.55;;;5.30;93.40;;;;;;4960528;28;20035;-90
2021/03/01 03:06:34;;;;;;;13.07;7.68;;;5.30;93.40;;;;;;4964240;28;20046;-89
2021/03/01 03:09:01;;;;;;;11.45;7.22;;;5.30;93.30;;;;;;4969228;28;20047;-90
2021/03/01 03:11:28;;;;;;;13.02;6.50;;;5.30;93.10;;;;;;4954684;28;20047;-89
2021/03/01 03:13:55;;;;;;;10.35;6.20;;;5.30;93.00;;;;;;4966023;28;20293;-89
2021/03/01 03:16:26;;;;;;;11.38;6.43;;;5.30;93.10;;;;;;4967079;28;20517;-90
2021/03/01 03:18:54;;;;;;;13.88;6.75;;;5.30;93.10;;;;;;4970857;28;20047;-90
2021/03/01 03:21:20;;;;;;;14.95;7.00;;;5.30;93.10;;;;;;4968119;28;20122;-90
2021/03/01 03:23:46;;;;;;;13.23;6.97;;;5.30;93.10;;;;;;4954766;28;20096;-90
2021/03/01 03:26:13;;;;;;;11.98;6.53;;;5.30;93.00;;;;;;4966656;28;20031;-89
2021/03/01 03:28:40;;;;;;;12.50;7.18;;;5.20;93.10;;;;;;4971072;28;20042;-90
2021/03/01 03:31:06;;;;;;;12.18;6.95;;;5.30;93.20;;;;;;4947821;28;20385;-91
2021/03/01 03:33:31;;;;;;;12.38;6.70;;;5.30;93.10;;;;;;4962527;28;20050;-90
2021/03/01 03:35:57;;;;;;;11.77;5.97;;;5.20;93.10;;;;;;4960001;28;20043;-90
2021/03/01 03:38:43;;;;;;;11.57;6.50;;;5.20;93.10;;;;;;4955194;28;20043;-91
2021/03/01 03:41:12;;;;;;;11.32;6.20;;;5.20;93.10;;;;;;4960732;28;20075;-91
2021/03/01 03:43:40;;;;;;;12.60;6.20;;;5.10;93.20;;;;;;4951335;28;20031;-89
2021/03/01 03:46:07;;;;;;;11.30;6.85;;;5.10;93.30;;;;;;4954441;28;20030;-88
2021/03/01 03:48:33;;;;;;;11.30;5.72;;;5.10;93.40;;;;;;4966760;28;20046;-90
2021/03/01 03:51:02;;;;;;;13.48;7.80;;;5.10;93.40;;;;;;4969041;28;20063;-92
2021/03/01 03:53:30;;;;;;;13.30;6.90;;;5.20;93.30;;;;;;4976842;28;20035;-90
2021/03/01 03:55:59;;;;;;;13.48;7.07;;;5.20;93.20;;;;;;4971252;28;20463;-89
2021/03/01 03:58:31;;;;;;;12.32;6.55;;;5.10;93.20;;;;;;4965817;28;20124;-91
2021/03/01 04:01:00;;;;;;;11.95;6.80;;;5.10;93.30;;;;;;4965934;28;20050;-91
2021/03/01 04:03:27;;;;;;;11.48;6.00;;;5.10;93.30;;;;;;4966212;28;20112;-89
2021/03/01 04:05:55;;;;;;;11.27;6.38;;;5.10;93.40;;;;;;4973100;28;20039;-91
2021/03/01 04:08:22;;;;;;;12.65;6.70;;;5.10;93.40;;;;;;4962119;28;20043;-90
2021/03/01 04:10:52;;;;;;;11.00;6.70;;;5.10;93.40;;;;;;4971781;28;20057;-90
2021/03/01 04:13:18;;;;;;;12.32;6.65;;;5.10;93.40;;;;;;4970371;28;20049;-90
2021/03/01 04:15:48;;;;;;;10.88;6.35;;;5.10;93.40;;;;;;4963987;28;20035;-90
2021/03/01 04:18:19;;;;;;;12.93;6.95;;;5.10;93.30;;;;;;4961711;28;20047;-90
2021/03/01 04:20:45;;;;;;;12.35;6.53;;;5.10;93.30;;;;;;4963987;28;20381;-89
2021/03/01 04:23:11;;;;;;;11.38;6.95;;;5.10;93.40;;;;;;4959908;28;20101;-91
2021/03/01 04:25:37;;;;;;;13.35;7.28;;;5.00;93.50;;;;;;4969423;28;20039;-90
2021/03/01 04:28:04;;;;;;;10.88;6.60;;;5.10;93.60;;;;;;4975058;28;20359;-90
2021/03/01 04:30:31;;;;;;;9.75;5.85;;;5.10;93.70;;;;;;4976736;28;20046;-90
2021/03/01 04:32:58;;;;;;;11.32;6.30;;;5.10;93.60;;;;;;4965541;28;20477;-89
2021/03/01 04:35:26;;;;;;;11.20;6.15;;;5.10;93.60;;;;;;4969014;28;20093;-90
2021/03/01 04:37:52;;;;;;;12.20;6.32;;;5.10;93.50;;;;;;5049169;28;20062;-89
2021/03/01 04:40:18;;;;;;;12.77;5.90;;;5.10;93.30;;;;;;4963815;28;20042;-90
2021/03/01 04:42:45;;;;;;;11.50;6.20;;;5.10;93.30;;;;;;4960618;28;20035;-90
2021/03/01 04:45:11;;;;;;;10.57;6.68;;;5.10;93.20;;;;;;4963099;28;20118;-90
2021/03/01 04:47:40;;;;;;;10.98;5.40;;;5.10;93.20;;;;;;4970196;28;20039;-88
2021/03/01 04:50:06;;;;;;;9.43;5.47;;;5.00;93.40;;;;;;4973788;28;20613;-90
2021/03/01 04:52:32;;;;;;;10.23;5.88;;;5.10;93.30;;;;;;4968140;28;20049;-90
2021/03/01 04:55:01;;;;;;;13.50;7.07;;;5.00;93.20;;;;;;4964035;28;20043;-90
2021/03/01 04:57:27;;;;;;;10.13;5.72;;;5.00;93.20;;;;;;4977146;28;20411;-90
2021/03/01 04:59:53;;;;;;;10.32;5.38;;;5.00;93.20;;;;;;4963153;28;20039;-88
2021/03/01 05:02:20;;;;;;;12.07;6.80;;;5.00;93.30;;;;;;4979263;28;20092;-91
2021/03/01 05:04:45;;;;;;;11.02;5.25;;;5.00;93.30;;;;;;4964692;28;20038;-90
2021/03/01 05:07:11;;;;;;;12.52;6.32;;;5.00;93.30;;;;;;4959344;28;20463;-91
2021/03/01 05:09:38;;;;;;;8.70;6.03;;;4.90;93.30;;;;;;4976706;28;20086;-90
2021/03/01 05:12:04;;;;;;;13.38;5.97;;;4.90;93.40;;;;;;4966249;28;20039;-91
2021/03/01 05:14:30;;;;;;;9.73;5.63;;;4.90;93.40;;;;;;4968768;28;20043;-91
2021/03/01 05:16:55;;;;;;;9.07;6.03;;;4.90;93.30;;;;;;4958413;28;20042;-89
2021/03/01 05:19:21;;;;;;;10.18;5.93;;;4.90;93.30;;;;;;4962921;28;20082;-90
2021/03/01 05:21:46;;;;;;;10.18;5.72;;;4.90;93.20;;;;;;4969893;28;20038;-89
2021/03/01 05:24:12;;;;;;;10.43;5.72;;;5.00;93.00;;;;;;4963148;28;20031;-90
2021/03/01 05:26:37;;;;;;;12.18;6.60;;;4.90;93.30;;;;;;4961595;28;20319;-90
2021/03/01 05:29:03;;;;;;;12.13;6.28;;;4.90;93.30;;;;;;4958477;28;20046;-90
2021/03/01 05:31:29;;;;;;;9.88;5.75;;;5.00;93.30;;;;;;4964218;28;20055;-89
2021/03/01 05:33:55;;;;;;;10.90;6.15;;;5.00;93.20;;;;;;4964030;28;20356;-90
2021/03/01 05:36:20;;;;;;;12.45;5.82;;;5.00;93.10;;;;;;4967076;28;20428;-90
2021/03/01 05:38:46;;;;;;;9.35;5.13;;;5.00;92.90;;;;;;4971047;28;20118;-90
2021/03/01 05:41:12;;;;;;;13.63;6.63;;;4.90;93.10;;;;;;4961770;28;20111;-90
2021/03/01 05:43:38;;;;;;;11.25;5.78;;;4.90;93.20;;;;;;4967430;28;20039;-90
2021/03/01 05:46:07;;;;;;;10.38;6.13;;;4.90;93.30;;;;;;4957558;28;20455;-90
2021/03/01 05:48:34;;;;;;;13.63;7.20;;;4.90;93.40;;;;;;4969964;28;20124;-90
2021/03/01 05:51:03;;;;;;;16.08;8.23;;;4.90;93.40;;;;;;4963875;28;20038;-89
2021/03/01 05:53:32;;;;;;;12.48;7.13;;;4.90;93.40;;;;;;4967017;28;20108;-89
2021/03/01 05:55:59;;;;;;;13.43;6.80;;;4.90;93.50;;;;;;4962137;28;20140;-89
2021/03/01 05:58:27;;;;;;;16.90;7.57;;;4.80;93.50;;;;;;4959048;28;20039;-89
2021/03/01 06:00:58;;;;;;;22.08;8.82;;;4.90;93.50;;;;;;4967821;28;20043;-90
2021/03/01 06:03:24;;;;;;;22.08;9.27;;;4.90;93.40;;;;;;4965806;28;20039;-89
2021/03/01 06:05:53;;;;;;;27.40;10.40;;;4.80;93.50;;;;;;5036550;28;20048;-89
2021/03/01 06:08:19;;;;;;;24.33;9.82;;;4.80;93.40;;;;;;4956311;28;20065;-88
2021/03/01 06:10:44;;;;;;;21.42;9.25;;;4.80;93.50;;;;;;4962964;28;20050;-90
2021/03/01 06:13:10;;;;;;;21.55;9.82;;;4.70;93.60;;;;;;4969287;28;20300;-89
2021/03/01 06:15:38;;;;;;;21.02;9.50;;;4.70;93.80;;;;;;4961257;28;20059;-90
2021/03/01 06:18:05;;;;;;;18.88;8.93;;;4.70;93.80;;;;;;4973501;28;20096;-89
2021/03/01 06:20:31;;;;;;;17.40;8.82;;;4.70;93.90;;;;;;4971269;28;20035;-89
2021/03/01 06:22:57;;;;;;;22.33;9.30;;;4.70;94.00;;;;;;4960786;28;20035;-89
2021/03/01 06:25:22;;;;;;;19.58;8.45;;;4.70;94.00;;;;;;5054936;28;20057;-89
2021/03/01 06:27:59;;;;;;;23.65;9.85;;;4.70;94.00;;;;;;4968409;28;20096;-88
2021/03/01 06:30:30;;;;;;;18.55;9.30;;;4.80;94.10;;;;;;4986457;28;20480;-89
2021/03/01 06:33:16;;;;;;;17.17;8.30;;;4.80;94.10;;;;;;4959265;28;20043;-87
2021/03/01 06:35:48;;;;;;;15.88;7.93;;;4.90;94.10;;;;;;4957647;28;20070;-87
2021/03/01 06:38:19;;;;;;;15.65;7.82;;;4.90;94.00;;;;;;4953536;28;20047;-89
2021/03/01 06:41:04;;;;;;;17.48;8.80;;;4.90;94.00;;;;;;4949727;28;20044;-88
2021/03/01 06:43:30;;;;;;;17.77;8.00;;;4.90;94.00;;;;;;4968756;28;20200;-88
2021/03/01 06:46:08;;;;;;;17.65;9.20;;;5.00;93.80;;;;;;4955241;28;20459;-89
2021/03/01 06:48:34;;;;;;;17.63;7.70;;;5.00;93.90;;;;;;4954252;28;20034;-89
2021/03/01 06:51:00;;;;;;;14.00;7.13;;;5.00;93.90;;;;;;4955188;28;20130;-89
2021/03/01 06:53:26;;;;;;;14.57;8.02;;;5.10;93.90;;;;;;4965483;28;20477;-88
2021/03/01 06:56:11;;;;;;;15.05;8.02;;;5.10;93.90;;;;;;4970940;28;20043;-90
2021/03/01 06:58:38;;;;;;;13.80;7.40;;;5.00;93.70;;;;;;4971658;28;20043;-89
2021/03/01 07:01:10;;;;;;;13.63;7.32;;;5.00;93.60;;;;;;4972624;28;20043;-87
2021/03/01 07:03:37;;;;;;;9.90;5.22;;;5.00;93.70;;;;;;4974135;28;20350;-90
2021/03/01 07:06:04;;;;;;;12.07;5.90;;;5.10;93.70;;;;;;4974235;28;20088;-89
2021/03/01 07:08:49;;;;;;;11.82;5.95;;;5.10;93.70;;;;;;4970139;28;20172;-90
2021/03/01 07:11:33;;;;;;;12.60;6.32;;;5.00;93.50;;;;;;4961147;28;20039;-90
2021/03/01 07:14:04;;;;;;;13.27;7.15;;;5.00;93.30;;;;;;4969670;28;20047;-89
2021/03/01 07:16:37;;;;;;;13.07;6.78;;;4.90;93.30;;;;;;4970645;28;20096;-90
2021/03/01 07:19:05;;;;;;;13.88;7.45;;;4.90;93.30;;;;;;4971455;28;20047;-90
2021/03/01 07:21:31;;;;;;;9.48;5.93;;;4.90;93.30;;;;;;4970311;28;20043;-89
2021/03/01 07:23:58;;;;;;;12.73;7.10;;;5.00;93.20;;;;;;4977640;28;20084;-89
2021/03/01 07:26:26;;;;;;;14.13;6.90;;;5.00;93.20;;;;;;4971205;28;20070;-89
2021/03/01 07:28:55;;;;;;;14.57;7.03;;;5.10;93.00;;;;;;4960498;28;20050;-90
2021/03/01 07:31:22;;;;;;;12.43;6.75;;;5.10;93.20;;;;;;5060282;28;20042;-89
2021/03/01 07:33:48;;;;;;;11.60;6.43;;;5.10;93.20;;;;;;4947187;28;20389;-88
2021/03/01 07:36:15;;;;;;;13.48;6.88;;;5.10;93.20;;;;;;4957064;28;20043;-87
2021/03/01 07:38:41;;;;;;;10.70;5.88;;;5.10;92.80;;;;;;4959334;28;20094;-88
2021/03/01 07:41:06;;;;;;;13.35;7.07;;;5.00;93.20;;;;;;4956892;28;20067;-88
2021/03/01 07:43:40;;;;;;;11.15;6.40;;;5.00;93.20;;;;;;4960277;28;20114;-87
2021/03/01 07:46:06;;;;;;;12.15;6.78;;;5.10;93.10;;;;;;4959867;28;20035;-90
2021/03/01 07:48:40;;;;;;;13.20;6.57;;;5.10;93.00;;;;;;4976706;28;20116;-86
2021/03/01 07:51:07;;;;;;;11.52;6.50;;;5.10;92.90;;;;;;4961969;28;20130;-89
2021/03/01 07:53:52;;;;;;;10.23;5.43;;;5.10;93.00;;;;;;5058574;28;20270;-88
2021/03/01 07:56:24;;;;;;;15.48;7.47;;;5.20;93.10;;;;;;5041225;28;20039;-87
2021/03/01 07:59:00;;;;;;;10.38;5.57;;;5.20;93.10;;;;;;5045485;28;20113;-89
2021/03/01 08:01:27;;;;;;;13.68;6.75;;;5.10;92.80;;;;;;4951512;28;20049;-88
2021/03/01 08:03:52;;;;;;;9.27;6.18;;;5.10;92.70;;;;;;4976747;28;20142;-88
2021/03/01 08:06:18;;;;;;;11.60;6.57;;;5.10;92.90;;;;;;4972772;28;20608;-89
2021/03/01 08:08:45;;;;;;;13.32;7.15;;;5.10;93.20;;;;;;4972862;28;20112;-90
2021/03/01 08:11:12;;;;;;;12.98;6.68;;;5.20;93.00;;;;;;4970308;28;20050;-90
2021/03/01 08:13:37;;;;;;;13.60;7.53;;;5.20;93.00;;;;;;4963767;28;20345;-87
2021/03/01 08:16:21;;;;;;;14.27;7.20;;;5.20;93.00;;;;;;4957338;28;20081;-88
2021/03/01 08:18:57;;;;;;;13.32;6.43;;;5.30;93.10;;;;;;4937613;28;20042;-89
2021/03/01 08:21:24;;;;;;;13.38;6.38;;;5.30;93.00;;;;;;5003674;28;20397;-89
2021/03/01 08:23:50;;;;;;;12.73;6.95;;;5.30;92.80;;;;;;5012671;28;20061;-89
2021/03/01 08:26:30;;;;;;;12.43;6.50;;;5.30;92.90;;;;;;4959424;28;20126;-88
2021/03/01 08:29:14;;;;;;;10.48;6.47;;;5.30;93.00;;;;;;4964660;28;20113;-88
2021/03/01 08:31:40;;;;;;;11.48;6.75;;;5.30;93.10;;;;;;4968942;28;20070;-89
2021/03/01 08:34:29;;;;;;;12.20;6.90;;;5.30;93.10;;;;;;4971752;28;20179;-91
2021/03/01 08:36:56;;;;;;;13.32;7.20;;;5.40;93.20;;;;;;4956916;28;20043;-90
2021/03/01 08:39:57;;;;;;;13.45;8.00;;;5.40;93.00;;;;;;4968427;28;20192;-90
2021/03/01 08:43:05;;;;;;;12.65;7.28;;;5.50;92.90;;;;;;4977991;28;20054;-90
2021/03/01 08:45:41;;;;;;;17.27;7.63;;;5.50;92.80;;;;;;4978778;28;20042;-90
2021/03/01 08:48:19;;;;;;;13.23;7.97;;;5.60;92.70;;;;;;4976702;28;20042;-93
2021/03/01 08:50:47;;;;;;;12.80;7.53;;;5.60;92.70;;;;;;4992403;28;20376;-88
2021/03/01 08:53:22;;;;;;;14.75;8.05;;;5.60;92.60;;;;;;4977409;28;20115;-90
2021/03/01 08:55:48;;;;;;;19.30;9.60;;;5.70;92.60;;;;;;4964975;28;20459;-90
2021/03/01 08:58:15;;;;;;;68.90;37.53;;;5.70;92.70;;;;;;4971866;28;20054;-90
2021/03/01 09:00:59;;;;;;;47.03;30.88;;;5.70;92.30;;;;;;4975345;28;20073;-89
2021/03/01 09:03:28;;;;;;;23.85;13.82;;;5.80;92.20;;;;;;4976397;28;20038;-90
2021/03/01 09:06:06;;;;;;;25.65;14.73;;;5.80;92.20;;;;;;4966124;28;20061;-91
2021/03/01 09:08:45;;;;;;;29.80;16.17;;;5.90;92.00;;;;;;4957919;28;20043;-90
2021/03/01 09:11:13;;;;;;;32.25;17.67;;;5.90;91.80;;;;;;4975143;28;20113;-89
2021/03/01 09:13:39;;;;;;;40.92;24.80;;;5.90;91.80;;;;;;4966447;28;20041;-89
2021/03/01 09:16:11;;;;;;;37.13;25.40;;;5.90;91.80;;;;;;5058151;28;20043;-89
2021/03/01 09:18:38;;;;;;;32.28;20.40;;;6.00;91.80;;;;;;4963674;28;20055;-91
2021/03/01 09:21:06;;;;;;;23.55;13.93;;;6.00;91.90;;;;;;4956161;28;20039;-88
2021/03/01 09:23:50;;;;;;;24.35;12.98;;;6.00;92.00;;;;;;4957491;28;20035;-89
2021/03/01 09:26:30;;;;;;;20.55;12.95;;;6.00;92.00;;;;;;4956125;28;20500;-89
2021/03/01 09:29:04;;;;;;;23.05;12.25;;;6.10;91.90;;;;;;4956222;28;20083;-89
2021/03/01 09:31:35;;;;;;;23.83;13.63;;;6.10;91.90;;;;;;4955577;28;20082;-89
2021/03/01 09:34:01;;;;;;;20.30;12.43;;;6.10;91.80;;;;;;4956105;28;20046;-90
2021/03/01 09:36:31;;;;;;;24.08;12.93;;;6.20;92.00;;;;;;4959913;28;20039;-90
2021/03/01 09:38:57;;;;;;;25.15;13.02;;;6.20;91.60;;;;;;4962431;28;20047;-91
2021/03/01 09:41:24;;;;;;;19.63;11.52;;;6.20;91.70;;;;;;4973785;28;20419;-91
2021/03/01 09:43:50;;;;;;;22.13;13.25;;;6.20;91.70;;;;;;4958225;28;20043;-90
2021/03/01 09:46:18;;;;;;;21.65;12.15;;;6.30;91.50;;;;;;4970445;28;20031;-90
2021/03/01 09:48:48;;;;;;;28.73;12.70;;;6.30;91.40;;;;;;4960342;28;20062;-91
2021/03/01 09:51:15;;;;;;;23.50;13.32;;;6.30;90.80;;;;;;4988379;28;20404;-90
2021/03/01 09:53:41;;;;;;;23.30;14.10;;;6.30;90.90;;;;;;4968615;28;20105;-90
2021/03/01 09:56:06;;;;;;;25.83;15.07;;;6.30;91.00;;;;;;5042301;28;20051;-91
2021/03/01 09:58:40;;;;;;;23.50;12.65;;;6.30;91.00;;;;;;4968076;28;20408;-90
2021/03/01 10:01:06;;;;;;;23.77;14.20;;;6.20;91.10;;;;;;4955210;28;20130;-89
2021/03/01 10:03:37;;;;;;;25.25;14.30;;;6.30;91.40;;;;;;5045368;28;20381;-89
2021/03/01 10:06:03;;;;;;;26.63;14.48;;;6.30;91.10;;;;;;4997321;28;20031;-89
2021/03/01 10:08:30;;;;;;;24.35;13.98;;;6.40;90.80;;;;;;4969261;28;20061;-89
2021/03/01 10:10:56;;;;;;;25.17;13.90;;;6.40;90.60;;;;;;4968821;28;20102;-90
2021/03/01 10:13:25;;;;;;;23.70;12.48;;;6.30;90.80;;;;;;4969132;28;20138;-89
2021/03/01 10:15:51;;;;;;;20.67;12.07;;;6.20;91.00;;;;;;4960182;28;20057;-90
2021/03/01 10:18:17;;;;;;;21.30;12.98;;;6.20;91.50;;;;;;4973738;28;20065;-89
2021/03/01 10:21:06;;;;;;;25.92;12.68;;;6.20;91.60;;;;;;4974871;28;20034;-89
2021/03/01 10:23:40;;;;;;;23.48;13.98;;;6.30;91.80;;;;;;4976629;28;20045;-91
2021/03/01 10:26:15;;;;;;;23.75;12.57;;;6.30;91.50;;;;;;4962224;28;20328;-89
2021/03/01 10:28:50;;;;;;;25.17;14.20;;;6.40;91.30;;;;;;4986818;28;20065;-90
2021/03/01 10:31:17;;;;;;;29.08;14.10;;;6.40;91.40;;;;;;4969774;28;20046;-91
2021/03/01 10:33:55;;;;;;;22.70;12.30;;;6.50;91.40;;;;;;4971594;28;20049;-89
2021/03/01 10:36:24;;;;;;;25.33;13.63;;;6.50;91.30;;;;;;4965426;28;20104;-89
2021/03/01 10:38:55;;;;;;;23.08;13.40;;;6.50;91.40;;;;;;4955724;28;20050;-89
2021/03/01 10:41:22;;;;;;;29.95;13.05;;;6.60;91.40;;;;;;5053839;28;20039;-88
2021/03/01 10:44:04;;;;;;;24.40;13.77;;;6.60;91.20;;;;;;4982828;28;20541;-88
2021/03/01 10:46:32;;;;;;;25.75;15.60;;;6.60;91.10;;;;;;4954301;28;20122;-88
2021/03/01 10:48:59;;;;;;;24.83;13.35;;;6.60;90.50;;;;;;5009625;28;20076;-90
2021/03/01 10:51:25;;;;;;;26.58;14.48;;;6.60;90.70;;;;;;4965132;28;20413;-89
2021/03/01 10:53:51;;;;;;;26.20;13.93;;;6.60;91.10;;;;;;4984548;28;20124;-89
2021/03/01 10:56:16;;;;;;;30.65;14.68;;;6.60;91.20;;;;;;4990196;28;20043;-88
2021/03/01 10:58:42;;;;;;;27.83;14.57;;;6.70;91.10;;;;;;4998254;28;20079;-90
2021/03/01 11:01:08;;;;;;;29.00;16.63;;;6.80;91.20;;;;;;4954770;28;20040;-90
2021/03/01 11:03:33;;;;;;;27.50;14.55;;;6.70;90.30;;;;;;4956590;28;20094;-89
2021/03/01 11:05:58;;;;;;;27.33;15.20;;;6.60;90.60;;;;;;5044287;28;20051;-90
2021/03/01 11:08:24;;;;;;;24.55;13.70;;;6.60;90.60;;;;;;4964610;28;20043;-89
2021/03/01 11:10:51;;;;;;;27.92;14.80;;;6.60;90.70;;;;;;5055606;28;20184;-89
2021/03/01 11:13:16;;;;;;;34.47;15.05;;;6.70;90.80;;;;;;4991583;28;20114;-90
2021/03/01 11:15:42;;;;;;;25.88;15.23;;;6.70;90.90;;;;;;4964922;28;20113;-89
2021/03/01 11:18:08;;;;;;;30.95;15.15;;;6.80;90.70;;;;;;4991294;28;20097;-90
2021/03/01 11:20:33;;;;;;;27.55;15.20;;;6.90;90.70;;;;;;4958341;28;20039;-89
2021/03/01 11:22:59;;;;;;;29.70;17.02;;;6.90;91.00;;;;;;4954387;28;20046;-89
2021/03/01 11:25:25;;;;;;;24.42;15.23;;;6.90;90.60;;;;;;4967872;28;20035;-91
2021/03/01 11:27:50;;;;;;;25.17;15.88;;;7.00;90.50;;;;;;4990735;28;20039;-89
2021/03/01 11:30:16;;;;;;;28.48;15.55;;;7.00;90.40;;;;;;4987616;28;20039;-90
2021/03/01 11:32:43;;;;;;;25.48;14.55;;;7.10;90.30;;;;;;4964108;28;20104;-89
2021/03/01 11:35:09;;;;;;;27.27;17.08;;;7.20;90.00;;;;;;4962411;28;20047;-89
2021/03/01 11:37:37;;;;;;;26.80;15.95;;;7.10;90.00;;;;;;5049562;28;20035;-90
2021/03/01 11:40:03;;;;;;;28.88;17.02;;;7.20;90.20;;;;;;4987425;28;20053;-90
2021/03/01 11:42:28;;;;;;;26.63;16.45;;;7.20;89.50;;;;;;4991361;28;20039;-89
2021/03/01 11:44:54;;;;;;;27.05;17.02;;;7.20;90.00;;;;;;4969635;28;20081;-90
2021/03/01 11:47:23;;;;;;;32.63;16.83;;;7.30;88.70;;;;;;4962942;28;20120;-90
2021/03/01 11:49:51;;;;;;;24.60;14.52;;;7.20;89.10;;;;;;4971240;28;20035;-91
2021/03/01 11:52:17;;;;;;;25.60;15.55;;;7.20;90.10;;;;;;4982515;28;20400;-91
2021/03/01 11:54:45;;;;;;;28.45;16.52;;;7.20;89.90;;;;;;4984243;28;20494;-89
2021/03/01 11:57:10;;;;;;;32.17;17.73;;;7.20;90.00;;;;;;5017081;28;20441;-90
2021/03/01 11:59:35;;;;;;;29.83;17.25;;;7.10;89.70;;;;;;4965148;28;20058;-89
2021/03/01 12:02:01;;;;;;;32.15;17.83;;;7.10;89.80;;;;;;4960624;28;20039;-90
2021/03/01 12:04:26;;;;;;;31.52;18.83;;;7.20;89.70;;;;;;4947263;28;20371;-90
2021/03/01 12:06:54;;;;;;;29.67;16.38;;;7.20;89.40;;;;;;4954791;28;20387;-89
2021/03/01 12:09:19;;;;;;;28.88;17.35;;;7.00;89.00;;;;;;4958976;28;20309;-90
2021/03/01 12:11:45;;;;;;;28.40;17.08;;;7.00;89.70;;;;;;4954422;28;20089;-90
2021/03/01 12:14:14;;;;;;;31.10;17.02;;;7.00;89.90;;;;;;4965555;28;20046;-89
2021/03/01 12:16:40;;;;;;;31.08;16.90;;;6.90;90.20;;;;;;4972639;28;20290;-87
2021/03/01 12:19:06;;;;;;;35.92;18.65;;;6.90;90.50;;;;;;4957151;28;20062;-89
2021/03/01 12:21:32;;;;;;;29.23;17.13;;;6.90;90.60;;;;;;5049714;28;20039;-88
2021/03/01 12:23:58;;;;;;;31.73;18.10;;;6.90;90.20;;;;;;5053021;28;20040;-90
2021/03/01 12:26:23;;;;;;;32.38;16.88;;;7.00;90.20;;;;;;4992956;28;20044;-89
2021/03/01 12:28:49;;;;;;;22.98;15.38;;;7.00;90.30;;;;;;4961449;28;20039;-89
2021/03/01 12:31:14;;;;;;;27.73;17.10;;;7.10;89.70;;;;;;4983901;28;20070;-90
2021/03/01 12:33:39;;;;;;;27.00;16.80;;;7.10;90.10;;;;;;4956956;28;20047;-88
2021/03/01 12:36:05;;;;;;;30.13;17.38;;;7.10;90.10;;;;;;5051386;28;20109;-90
2021/03/01 12:38:31;;;;;;;27.58;17.13;;;7.20;89.80;;;;;;4950184;28;20047;-90
2021/03/01 12:40:56;;;;;;;25.65;15.90;;;7.30;89.60;;;;;;4941678;28;20058;-89
2021/03/01 12:43:22;;;;;;;29.10;16.75;;;7.30;89.50;;;;;;4987408;28;20035;-90
2021/03/01 12:45:47;;;;;;;26.30;15.38;;;7.40;88.40;;;;;;4957260;28;20039;-90
2021/03/01 12:48:13;;;;;;;28.15;16.40;;;7.40;88.90;;;;;;5074134;28;20125;-90
2021/03/01 12:50:38;;;;;;;29.17;15.35;;;7.40;88.50;;;;;;4987880;28;20039;-90
2021/03/01 12:53:05;;;;;;;27.70;15.98;;;7.40;88.70;;;;;;4956491;29;20105;-90